sensor_id;sensor_type;location;lat;lon;timestamp;P1;durP1;ratioP1;P2;durP2;ratioP2
64917;SDS011;52176;44.858;38.372;2023-05-20T00:00:44;1.75;;;0.60;;
64917;SDS011;52176;44.858;38.372;2023-05-20T00:03:13;1.10;;;0.60;;
64917;SDS011;52176;44.858;38.372;2023-05-20T00:05:40;0.95;;;0.60;;
64917;SDS011;52176;44.858;38.372;2023-05-20T00:08:06;1.38;;;0.60;;
64917;SDS011;52176;44.858;38.372;2023-05-20T00:10:34;1.10;;;0.60;;
64917;SDS011;52176;44.858;38.372;2023-05-20T00:13:00;1.10;;;0.60;;
64917;SDS011;52176;44.858;38.372;2023-05-20T01:04:16;1.30;;;0.50;;
64917;SDS011;52176;44.858;38.372;2023-05-20T01:06:43;0.80;;;0.50;;
64917;SDS011;52176;44.858;38.372;2023-05-20T01:09:10;1.10;;;0.60;;
64917;SDS011;52176;44.858;38.372;2023-05-20T01:11:37;0.82;;;0.50;;
64917;SDS011;52176;44.858;38.372;2023-05-20T01:14:13;1.17;;;0.52;;
64917;SDS011;52176;44.858;38.372;2023-05-20T01:16:41;1.13;;;0.50;;
64917;SDS011;52176;44.858;38.372;2023-05-20T01:19:12;1.15;;;0.60;;
64917;SDS011;52176;44.858;38.372;2023-05-20T01:21:52;1.33;;;0.60;;
64917;SDS011;52176;44.858;38.372;2023-05-20T01:24:18;1.23;;;0.50;;
64917;SDS011;52176;44.858;38.372;2023-05-20T01:26:44;1.02;;;0.50;;
64917;SDS011;52176;44.858;38.372;2023-05-20T01:29:12;1.00;;;0.50;;
64917;SDS011;52176;44.858;38.372;2023-05-20T01:31:42;1.05;;;0.50;;
64917;SDS011;52176;44.858;38.372;2023-05-20T01:34:10;0.80;;;0.50;;
64917;SDS011;52176;44.858;38.372;2023-05-20T01:36:37;1.02;;;0.60;;
64917;SDS011;52176;44.858;38.372;2023-05-20T01:39:05;0.98;;;0.55;;
64917;SDS011;52176;44.858;38.372;2023-05-20T01:41:31;0.90;;;0.50;;
64917;SDS011;52176;44.858;38.372;2023-05-20T01:44:00;0.95;;;0.50;;
64917;SDS011;52176;44.858;38.372;2023-05-20T01:46:26;1.48;;;0.57;;
64917;SDS011;52176;44.858;38.372;2023-05-20T01:48:52;0.90;;;0.60;;
64917;SDS011;52176;44.858;38.372;2023-05-20T01:51:18;0.90;;;0.60;;
64917;SDS011;52176;44.858;38.372;2023-05-20T01:53:44;1.10;;;0.60;;
64917;SDS011;52176;44.858;38.372;2023-05-20T01:56:10;0.80;;;0.60;;
64917;SDS011;52176;44.858;38.372;2023-05-20T01:58:36;1.85;;;0.60;;
64917;SDS011;52176;44.858;38.372;2023-05-20T02:01:03;1.88;;;0.60;;
64917;SDS011;52176;44.858;38.372;2023-05-20T02:03:29;1.33;;;0.57;;
64917;SDS011;52176;44.858;38.372;2023-05-20T02:05:55;1.10;;;0.60;;
64917;SDS011;52176;44.858;38.372;2023-05-20T02:08:21;1.15;;;0.60;;
64917;SDS011;52176;44.858;38.372;2023-05-20T02:10:47;1.45;;;0.60;;
64917;SDS011;52176;44.858;38.372;2023-05-20T02:13:14;1.20;;;0.55;;
64917;SDS011;52176;44.858;38.372;2023-05-20T02:15:40;1.00;;;0.60;;
64917;SDS011;52176;44.858;38.372;2023-05-20T02:18:06;1.20;;;0.60;;
64917;SDS011;52176;44.858;38.372;2023-05-20T02:20:36;0.95;;;0.60;;
64917;SDS011;52176;44.858;38.372;2023-05-20T02:23:02;0.80;;;0.50;;
64917;SDS011;52176;44.858;38.372;2023-05-20T02:25:32;1.55;;;0.60;;
64917;SDS011;52176;44.858;38.372;2023-05-20T02:27:58;1.30;;;0.60;;
64917;SDS011;52176;44.858;38.372;2023-05-20T02:30:26;0.98;;;0.60;;
64917;SDS011;52176;44.858;38.372;2023-05-20T02:32:52;1.08;;;0.60;;
64917;SDS011;52176;44.858;38.372;2023-05-20T02:35:18;2.03;;;0.60;;
64917;SDS011;52176;44.858;38.372;2023-05-20T02:37:44;1.63;;;0.50;;
64917;SDS011;52176;44.858;38.372;2023-05-20T02:40:10;1.10;;;0.60;;
64917;SDS011;52176;44.858;38.372;2023-05-20T02:42:37;1.42;;;0.50;;
64917;SDS011;52176;44.858;38.372;2023-05-20T02:45:04;1.33;;;0.68;;
64917;SDS011;52176;44.858;38.372;2023-05-20T02:47:30;1.20;;;0.68;;
64917;SDS011;52176;44.858;38.372;2023-05-20T02:49:56;1.20;;;0.60;;
64917;SDS011;52176;44.858;38.372;2023-05-20T02:52:22;1.20;;;0.60;;
64917;SDS011;52176;44.858;38.372;2023-05-20T02:54:48;0.90;;;0.60;;
64917;SDS011;52176;44.858;38.372;2023-05-20T04:07:57;1.40;;;0.50;;
64917;SDS011;52176;44.858;38.372;2023-05-20T04:10:23;1.27;;;0.52;;
64917;SDS011;52176;44.858;38.372;2023-05-20T04:12:50;1.52;;;0.50;;
64917;SDS011;52176;44.858;38.372;2023-05-20T04:15:17;1.42;;;0.50;;
64917;SDS011;52176;44.858;38.372;2023-05-20T04:17:51;1.27;;;0.50;;
64917;SDS011;52176;44.858;38.372;2023-05-20T05:16:30;1.42;;;0.40;;
64917;SDS011;52176;44.858;38.372;2023-05-20T05:18:57;1.65;;;0.40;;
64917;SDS011;52176;44.858;38.372;2023-05-20T05:21:23;1.27;;;0.40;;
64917;SDS011;52176;44.858;38.372;2023-05-20T05:23:49;0.50;;;0.40;;
64917;SDS011;52176;44.858;38.372;2023-05-20T05:26:15;0.90;;;0.40;;
64917;SDS011;52176;44.858;38.372;2023-05-20T05:28:43;1.67;;;0.43;;
64917;SDS011;52176;44.858;38.372;2023-05-20T05:31:09;0.60;;;0.40;;
64917;SDS011;52176;44.858;38.372;2023-05-20T05:33:35;1.35;;;0.45;;
64917;SDS011;52176;44.858;38.372;2023-05-20T05:36:01;1.83;;;0.50;;
64917;SDS011;52176;44.858;38.372;2023-05-20T05:38:29;1.30;;;0.40;;
64917;SDS011;52176;44.858;38.372;2023-05-20T05:40:55;1.20;;;0.40;;
64917;SDS011;52176;44.858;38.372;2023-05-20T05:43:21;1.38;;;0.40;;
64917;SDS011;52176;44.858;38.372;2023-05-20T05:45:49;0.75;;;0.40;;
64917;SDS011;52176;44.858;38.372;2023-05-20T05:48:15;1.45;;;0.40;;
64917;SDS011;52176;44.858;38.372;2023-05-20T05:50:44;1.90;;;0.50;;
64917;SDS011;52176;44.858;38.372;2023-05-20T05:53:12;1.38;;;0.40;;
64917;SDS011;52176;44.858;38.372;2023-05-20T05:55:41;1.35;;;0.40;;
64917;SDS011;52176;44.858;38.372;2023-05-20T05:58:08;1.48;;;0.52;;
64917;SDS011;52176;44.858;38.372;2023-05-20T06:00:34;1.30;;;0.40;;
64917;SDS011;52176;44.858;38.372;2023-05-20T06:03:00;1.55;;;0.40;;
64917;SDS011;52176;44.858;38.372;2023-05-20T06:05:31;1.45;;;0.43;;
64917;SDS011;52176;44.858;38.372;2023-05-20T06:07:57;1.00;;;0.40;;
64917;SDS011;52176;44.858;38.372;2023-05-20T06:10:23;1.45;;;0.50;;
64917;SDS011;52176;44.858;38.372;2023-05-20T06:12:49;1.85;;;0.40;;
64917;SDS011;52176;44.858;38.372;2023-05-20T06:15:16;1.85;;;0.40;;
64917;SDS011;52176;44.858;38.372;2023-05-20T06:17:42;1.20;;;0.40;;
64917;SDS011;52176;44.858;38.372;2023-05-20T06:20:09;1.63;;;0.40;;
64917;SDS011;52176;44.858;38.372;2023-05-20T06:22:35;2.03;;;0.50;;
64917;SDS011;52176;44.858;38.372;2023-05-20T06:25:02;1.35;;;0.40;;
64917;SDS011;52176;44.858;38.372;2023-05-20T06:27:29;1.88;;;0.50;;
64917;SDS011;52176;44.858;38.372;2023-05-20T06:29:55;0.90;;;0.40;;
64917;SDS011;52176;44.858;38.372;2023-05-20T06:34:50;1.00;;;0.40;;
64917;SDS011;52176;44.858;38.372;2023-05-20T06:37:16;1.10;;;0.40;;
64917;SDS011;52176;44.858;38.372;2023-05-20T06:39:42;1.02;;;0.40;;
64917;SDS011;52176;44.858;38.372;2023-05-20T06:42:09;1.27;;;0.40;;
64917;SDS011;52176;44.858;38.372;2023-05-20T06:44:35;0.75;;;0.40;;
64917;SDS011;52176;44.858;38.372;2023-05-20T06:47:27;0.80;;;0.40;;
64917;SDS011;52176;44.858;38.372;2023-05-20T06:49:54;1.05;;;0.40;;
64917;SDS011;52176;44.858;38.372;2023-05-20T06:52:20;1.45;;;0.70;;
64917;SDS011;52176;44.858;38.372;2023-05-20T06:54:46;1.10;;;0.40;;
64917;SDS011;52176;44.858;38.372;2023-05-20T06:57:13;1.25;;;0.40;;
64917;SDS011;52176;44.858;38.372;2023-05-20T06:59:39;1.77;;;0.40;;
64917;SDS011;52176;44.858;38.372;2023-05-20T07:02:06;2.08;;;0.40;;
64917;SDS011;52176;44.858;38.372;2023-05-20T07:04:32;0.88;;;0.30;;
64917;SDS011;52176;44.858;38.372;2023-05-20T07:06:58;1.67;;;0.40;;
64917;SDS011;52176;44.858;38.372;2023-05-20T07:09:24;1.10;;;0.40;;
64917;SDS011;52176;44.858;38.372;2023-05-20T07:11:50;0.80;;;0.40;;
64917;SDS011;52176;44.858;38.372;2023-05-20T07:14:16;0.93;;;0.40;;
64917;SDS011;52176;44.858;38.372;2023-05-20T07:16:42;0.80;;;0.40;;
64917;SDS011;52176;44.858;38.372;2023-05-20T07:19:08;2.05;;;0.50;;
64917;SDS011;52176;44.858;38.372;2023-05-20T07:21:34;0.82;;;0.40;;
64917;SDS011;52176;44.858;38.372;2023-05-20T07:24:22;1.77;;;0.40;;
64917;SDS011;52176;44.858;38.372;2023-05-20T07:26:48;0.75;;;0.40;;
64917;SDS011;52176;44.858;38.372;2023-05-20T07:29:14;0.80;;;0.40;;
64917;SDS011;52176;44.858;38.372;2023-05-20T07:31:40;1.33;;;0.40;;
64917;SDS011;52176;44.858;38.372;2023-05-20T07:34:06;0.82;;;0.38;;
64917;SDS011;52176;44.858;38.372;2023-05-20T07:36:32;1.38;;;0.40;;
64917;SDS011;52176;44.858;38.372;2023-05-20T07:39:03;2.42;;;0.40;;
64917;SDS011;52176;44.858;38.372;2023-05-20T07:41:33;1.20;;;0.40;;
64917;SDS011;52176;44.858;38.372;2023-05-20T07:44:00;1.42;;;0.40;;
64917;SDS011;52176;44.858;38.372;2023-05-20T07:46:31;1.37;;;0.30;;
64917;SDS011;52176;44.858;38.372;2023-05-20T07:48:57;1.67;;;0.30;;
64917;SDS011;52176;44.858;38.372;2023-05-20T07:51:23;1.40;;;0.40;;
64917;SDS011;52176;44.858;38.372;2023-05-20T07:53:49;2.00;;;0.40;;
64917;SDS011;52176;44.858;38.372;2023-05-20T07:56:16;0.80;;;0.35;;
64917;SDS011;52176;44.858;38.372;2023-05-20T07:58:43;1.17;;;0.30;;
64917;SDS011;52176;44.858;38.372;2023-05-20T08:01:21;1.50;;;0.40;;
64917;SDS011;52176;44.858;38.372;2023-05-20T08:03:47;1.20;;;0.40;;
64917;SDS011;52176;44.858;38.372;2023-05-20T08:06:15;0.90;;;0.40;;
64917;SDS011;52176;44.858;38.372;2023-05-20T08:08:42;1.52;;;0.30;;
64917;SDS011;52176;44.858;38.372;2023-05-20T08:11:16;1.45;;;0.40;;
64917;SDS011;52176;44.858;38.372;2023-05-20T08:13:42;1.52;;;0.38;;
64917;SDS011;52176;44.858;38.372;2023-05-20T08:16:08;1.02;;;0.30;;
64917;SDS011;52176;44.858;38.372;2023-05-20T08:18:35;1.23;;;0.40;;
64917;SDS011;52176;44.858;38.372;2023-05-20T08:21:03;0.60;;;0.30;;
64917;SDS011;52176;44.858;38.372;2023-05-20T08:23:32;1.15;;;0.30;;
64917;SDS011;52176;44.858;38.372;2023-05-20T08:25:59;1.35;;;0.30;;
64917;SDS011;52176;44.858;38.372;2023-05-20T08:28:31;1.25;;;0.40;;
64917;SDS011;52176;44.858;38.372;2023-05-20T08:30:57;0.65;;;0.30;;
64917;SDS011;52176;44.858;38.372;2023-05-20T08:33:27;0.68;;;0.30;;
64917;SDS011;52176;44.858;38.372;2023-05-20T08:35:53;1.30;;;0.35;;
64917;SDS011;52176;44.858;38.372;2023-05-20T08:38:20;0.93;;;0.30;;
64917;SDS011;52176;44.858;38.372;2023-05-20T08:40:56;1.25;;;0.30;;
64917;SDS011;52176;44.858;38.372;2023-05-20T08:43:23;2.70;;;0.38;;
64917;SDS011;52176;44.858;38.372;2023-05-20T08:45:49;1.88;;;0.30;;
64917;SDS011;52176;44.858;38.372;2023-05-20T08:48:18;1.05;;;0.30;;
64917;SDS011;52176;44.858;38.372;2023-05-20T08:50:48;1.42;;;0.30;;
64917;SDS011;52176;44.858;38.372;2023-05-20T08:53:15;0.95;;;0.30;;
64917;SDS011;52176;44.858;38.372;2023-05-20T08:55:45;1.95;;;0.30;;
64917;SDS011;52176;44.858;38.372;2023-05-20T08:58:14;1.60;;;0.30;;
64917;SDS011;52176;44.858;38.372;2023-05-20T09:00:40;1.35;;;0.40;;
64917;SDS011;52176;44.858;38.372;2023-05-20T09:03:06;2.10;;;0.40;;
64917;SDS011;52176;44.858;38.372;2023-05-20T09:05:33;2.17;;;0.40;;
64917;SDS011;52176;44.858;38.372;2023-05-20T09:08:09;0.80;;;0.30;;
64917;SDS011;52176;44.858;38.372;2023-05-20T09:10:37;1.63;;;0.30;;
64917;SDS011;52176;44.858;38.372;2023-05-20T09:13:04;1.13;;;0.30;;
64917;SDS011;52176;44.858;38.372;2023-05-20T09:15:30;1.15;;;0.30;;
64917;SDS011;52176;44.858;38.372;2023-05-20T09:18:05;0.88;;;0.30;;
64917;SDS011;52176;44.858;38.372;2023-05-20T09:20:35;1.23;;;0.40;;
64917;SDS011;52176;44.858;38.372;2023-05-20T09:23:03;1.10;;;0.40;;
64917;SDS011;52176;44.858;38.372;2023-05-20T09:25:31;1.15;;;0.30;;
64917;SDS011;52176;44.858;38.372;2023-05-20T09:27:58;1.63;;;0.40;;
64917;SDS011;52176;44.858;38.372;2023-05-20T09:30:24;1.63;;;0.30;;
64917;SDS011;52176;44.858;38.372;2023-05-20T09:32:56;1.05;;;0.30;;
64917;SDS011;52176;44.858;38.372;2023-05-20T09:35:25;0.80;;;0.40;;
64917;SDS011;52176;44.858;38.372;2023-05-20T09:37:52;1.55;;;0.30;;
64917;SDS011;52176;44.858;38.372;2023-05-20T09:40:22;1.10;;;0.40;;
64917;SDS011;52176;44.858;38.372;2023-05-20T09:42:55;1.48;;;0.30;;
64917;SDS011;52176;44.858;38.372;2023-05-20T09:45:26;1.50;;;0.30;;
64917;SDS011;52176;44.858;38.372;2023-05-20T09:47:53;1.10;;;0.40;;
64917;SDS011;52176;44.858;38.372;2023-05-20T09:50:20;1.48;;;0.40;;
64917;SDS011;52176;44.858;38.372;2023-05-20T09:52:48;1.98;;;0.32;;
64917;SDS011;52176;44.858;38.372;2023-05-20T09:55:16;1.05;;;0.40;;
64917;SDS011;52176;44.858;38.372;2023-05-20T09:57:43;1.65;;;0.40;;
64917;SDS011;52176;44.858;38.372;2023-05-20T10:00:11;1.80;;;0.40;;
64917;SDS011;52176;44.858;38.372;2023-05-20T10:02:43;0.95;;;0.30;;
64917;SDS011;52176;44.858;38.372;2023-05-20T10:05:17;1.33;;;0.30;;
64917;SDS011;52176;44.858;38.372;2023-05-20T10:11:15;1.52;;;0.30;;
64917;SDS011;52176;44.858;38.372;2023-05-20T10:22:00;0.68;;;0.30;;
64917;SDS011;52176;44.858;38.372;2023-05-20T10:24:28;0.60;;;0.30;;
64917;SDS011;52176;44.858;38.372;2023-05-20T10:26:56;1.17;;;0.30;;
64917;SDS011;52176;44.858;38.372;2023-05-20T10:29:24;1.25;;;0.30;;
64917;SDS011;52176;44.858;38.372;2023-05-20T10:31:50;1.67;;;0.38;;
64917;SDS011;52176;44.858;38.372;2023-05-20T10:34:17;1.63;;;0.32;;
64917;SDS011;52176;44.858;38.372;2023-05-20T10:36:45;0.90;;;0.30;;
64917;SDS011;52176;44.858;38.372;2023-05-20T10:39:29;1.10;;;0.30;;
64917;SDS011;52176;44.858;38.372;2023-05-20T10:42:05;0.90;;;0.30;;
64917;SDS011;52176;44.858;38.372;2023-05-20T10:44:52;0.88;;;0.30;;
64917;SDS011;52176;44.858;38.372;2023-05-20T10:47:18;1.17;;;0.30;;
64917;SDS011;52176;44.858;38.372;2023-05-20T10:49:44;2.08;;;0.30;;
64917;SDS011;52176;44.858;38.372;2023-05-20T10:52:11;1.60;;;0.40;;
64917;SDS011;52176;44.858;38.372;2023-05-20T10:57:29;2.60;;;0.40;;
64917;SDS011;52176;44.858;38.372;2023-05-20T10:59:56;1.40;;;0.40;;
64917;SDS011;52176;44.858;38.372;2023-05-20T11:02:23;0.70;;;0.30;;
64917;SDS011;52176;44.858;38.372;2023-05-20T11:04:56;1.20;;;0.30;;
64917;SDS011;52176;44.858;38.372;2023-05-20T11:07:30;2.38;;;0.40;;
64917;SDS011;52176;44.858;38.372;2023-05-20T11:09:57;0.98;;;0.30;;
64917;SDS011;52176;44.858;38.372;2023-05-20T11:12:24;1.55;;;0.45;;
64917;SDS011;52176;44.858;38.372;2023-05-20T11:14:50;0.80;;;0.30;;
64917;SDS011;52176;44.858;38.372;2023-05-20T11:17:17;1.02;;;0.40;;
64917;SDS011;52176;44.858;38.372;2023-05-20T11:19:43;1.20;;;0.40;;
64917;SDS011;52176;44.858;38.372;2023-05-20T11:22:10;0.90;;;0.30;;
64917;SDS011;52176;44.858;38.372;2023-05-20T11:24:36;1.48;;;0.40;;
64917;SDS011;52176;44.858;38.372;2023-05-20T11:27:02;1.42;;;0.35;;
64917;SDS011;52176;44.858;38.372;2023-05-20T11:29:28;1.05;;;0.30;;
64917;SDS011;52176;44.858;38.372;2023-05-20T11:31:56;0.88;;;0.30;;
64917;SDS011;52176;44.858;38.372;2023-05-20T11:34:23;0.90;;;0.30;;
64917;SDS011;52176;44.858;38.372;2023-05-20T11:36:56;1.10;;;0.30;;
64917;SDS011;52176;44.858;38.372;2023-05-20T11:39:23;1.33;;;0.30;;
64917;SDS011;52176;44.858;38.372;2023-05-20T11:41:49;1.58;;;0.40;;
64917;SDS011;52176;44.858;38.372;2023-05-20T11:44:15;1.95;;;0.40;;
64917;SDS011;52176;44.858;38.372;2023-05-20T11:46:45;1.85;;;0.40;;
64917;SDS011;52176;44.858;38.372;2023-05-20T11:49:15;0.73;;;0.30;;
64917;SDS011;52176;44.858;38.372;2023-05-20T11:51:42;1.33;;;0.40;;
64917;SDS011;52176;44.858;38.372;2023-05-20T11:54:09;0.90;;;0.40;;
64917;SDS011;52176;44.858;38.372;2023-05-20T11:56:36;1.00;;;0.40;;
64917;SDS011;52176;44.858;38.372;2023-05-20T11:59:03;1.08;;;0.30;;
64917;SDS011;52176;44.858;38.372;2023-05-20T12:01:34;1.85;;;0.40;;
64917;SDS011;52176;44.858;38.372;2023-05-20T12:04:08;1.48;;;0.30;;
64917;SDS011;52176;44.858;38.372;2023-05-20T12:06:34;1.55;;;0.30;;
64917;SDS011;52176;44.858;38.372;2023-05-20T12:09:04;1.15;;;0.40;;
64917;SDS011;52176;44.858;38.372;2023-05-20T12:11:37;1.65;;;0.40;;
64917;SDS011;52176;44.858;38.372;2023-05-20T12:14:05;0.90;;;0.30;;
64917;SDS011;52176;44.858;38.372;2023-05-20T12:16:33;1.30;;;0.40;;
64917;SDS011;52176;44.858;38.372;2023-05-20T12:18:59;1.77;;;0.50;;
64917;SDS011;52176;44.858;38.372;2023-05-20T12:21:27;1.40;;;0.50;;
64917;SDS011;52176;44.858;38.372;2023-05-20T12:23:53;1.50;;;0.60;;
64917;SDS011;52176;44.858;38.372;2023-05-20T12:26:26;2.83;;;0.90;;
64917;SDS011;52176;44.858;38.372;2023-05-20T12:28:53;1.95;;;0.70;;
64917;SDS011;52176;44.858;38.372;2023-05-20T12:31:20;2.53;;;0.85;;
64917;SDS011;52176;44.858;38.372;2023-05-20T12:33:46;2.00;;;0.88;;
64917;SDS011;52176;44.858;38.372;2023-05-20T12:36:12;2.30;;;0.90;;
64917;SDS011;52176;44.858;38.372;2023-05-20T12:38:38;2.28;;;0.70;;
64917;SDS011;52176;44.858;38.372;2023-05-20T12:41:04;1.10;;;0.50;;
64917;SDS011;52176;44.858;38.372;2023-05-20T12:43:31;1.38;;;0.60;;
64917;SDS011;52176;44.858;38.372;2023-05-20T12:45:57;1.83;;;0.50;;
64917;SDS011;52176;44.858;38.372;2023-05-20T12:48:23;1.55;;;0.50;;
64917;SDS011;52176;44.858;38.372;2023-05-20T12:50:49;1.73;;;0.60;;
64917;SDS011;52176;44.858;38.372;2023-05-20T12:53:15;2.40;;;0.70;;
64917;SDS011;52176;44.858;38.372;2023-05-20T12:55:41;1.92;;;0.80;;
64917;SDS011;52176;44.858;38.372;2023-05-20T12:58:07;3.53;;;1.20;;
64917;SDS011;52176;44.858;38.372;2023-05-20T13:00:34;2.00;;;0.70;;
64917;SDS011;52176;44.858;38.372;2023-05-20T13:03:00;2.15;;;0.90;;
64917;SDS011;52176;44.858;38.372;2023-05-20T13:05:26;2.03;;;0.65;;
64917;SDS011;52176;44.858;38.372;2023-05-20T13:07:52;2.25;;;0.70;;
64917;SDS011;52176;44.858;38.372;2023-05-20T13:10:18;1.63;;;0.50;;
64917;SDS011;52176;44.858;38.372;2023-05-20T13:12:44;1.50;;;0.50;;
64917;SDS011;52176;44.858;38.372;2023-05-20T13:15:13;1.30;;;0.40;;
64917;SDS011;52176;44.858;38.372;2023-05-20T13:17:39;1.02;;;0.40;;
64917;SDS011;52176;44.858;38.372;2023-05-20T13:20:07;2.13;;;0.50;;
64917;SDS011;52176;44.858;38.372;2023-05-20T13:22:33;1.00;;;0.40;;
64917;SDS011;52176;44.858;38.372;2023-05-20T13:24:59;1.33;;;0.38;;
64917;SDS011;52176;44.858;38.372;2023-05-20T13:27:25;1.38;;;0.40;;
64917;SDS011;52176;44.858;38.372;2023-05-20T13:29:52;1.63;;;0.30;;
64917;SDS011;52176;44.858;38.372;2023-05-20T13:32:18;1.25;;;0.30;;
64917;SDS011;52176;44.858;38.372;2023-05-20T13:34:44;1.15;;;0.30;;
64917;SDS011;52176;44.858;38.372;2023-05-20T13:37:10;1.50;;;0.30;;
64917;SDS011;52176;44.858;38.372;2023-05-20T13:39:36;0.77;;;0.30;;
64917;SDS011;52176;44.858;38.372;2023-05-20T13:42:02;1.30;;;0.30;;
64917;SDS011;52176;44.858;38.372;2023-05-20T13:44:28;0.90;;;0.40;;
64917;SDS011;52176;44.858;38.372;2023-05-20T13:46:55;1.05;;;0.30;;
64917;SDS011;52176;44.858;38.372;2023-05-20T13:49:21;1.27;;;0.30;;
64917;SDS011;52176;44.858;38.372;2023-05-20T13:51:47;1.08;;;0.32;;
64917;SDS011;52176;44.858;38.372;2023-05-20T13:54:13;0.80;;;0.30;;
64917;SDS011;52176;44.858;38.372;2023-05-20T13:56:39;0.98;;;0.30;;
64917;SDS011;52176;44.858;38.372;2023-05-20T13:59:05;1.08;;;0.40;;
64917;SDS011;52176;44.858;38.372;2023-05-20T14:01:31;1.13;;;0.40;;
64917;SDS011;52176;44.858;38.372;2023-05-20T14:03:57;1.02;;;0.30;;
64917;SDS011;52176;44.858;38.372;2023-05-20T14:06:24;1.75;;;0.40;;
64917;SDS011;52176;44.858;38.372;2023-05-20T14:08:52;1.52;;;0.30;;
64917;SDS011;52176;44.858;38.372;2023-05-20T14:11:19;1.10;;;0.30;;
64917;SDS011;52176;44.858;38.372;2023-05-20T14:13:45;0.80;;;0.30;;
64917;SDS011;52176;44.858;38.372;2023-05-20T14:16:11;1.58;;;0.30;;
64917;SDS011;52176;44.858;38.372;2023-05-20T14:18:37;1.25;;;0.30;;
64917;SDS011;52176;44.858;38.372;2023-05-20T14:21:03;0.80;;;0.30;;
64917;SDS011;52176;44.858;38.372;2023-05-20T14:23:29;1.23;;;0.32;;
64917;SDS011;52176;44.858;38.372;2023-05-20T14:25:55;0.82;;;0.30;;
64917;SDS011;52176;44.858;38.372;2023-05-20T14:28:21;1.50;;;0.30;;
64917;SDS011;52176;44.858;38.372;2023-05-20T14:30:47;0.95;;;0.30;;
64917;SDS011;52176;44.858;38.372;2023-05-20T14:33:13;1.75;;;0.40;;
64917;SDS011;52176;44.858;38.372;2023-05-20T14:35:39;1.60;;;0.40;;
64917;SDS011;52176;44.858;38.372;2023-05-20T14:38:06;1.20;;;0.30;;
64917;SDS011;52176;44.858;38.372;2023-05-20T14:40:32;0.90;;;0.30;;
64917;SDS011;52176;44.858;38.372;2023-05-20T14:42:58;1.08;;;0.30;;
64917;SDS011;52176;44.858;38.372;2023-05-20T14:45:24;1.20;;;0.30;;
64917;SDS011;52176;44.858;38.372;2023-05-20T14:47:50;1.33;;;0.30;;
64917;SDS011;52176;44.858;38.372;2023-05-20T14:50:16;1.40;;;0.32;;
64917;SDS011;52176;44.858;38.372;2023-05-20T14:52:42;1.10;;;0.30;;
64917;SDS011;52176;44.858;38.372;2023-05-20T14:55:08;0.88;;;0.30;;
64917;SDS011;52176;44.858;38.372;2023-05-20T14:57:34;1.15;;;0.40;;
64917;SDS011;52176;44.858;38.372;2023-05-20T15:00:00;1.48;;;0.30;;
64917;SDS011;52176;44.858;38.372;2023-05-20T15:02:26;1.58;;;0.30;;
64917;SDS011;52176;44.858;38.372;2023-05-20T15:04:52;1.25;;;0.30;;
64917;SDS011;52176;44.858;38.372;2023-05-20T15:07:18;1.52;;;0.30;;
64917;SDS011;52176;44.858;38.372;2023-05-20T15:09:44;0.88;;;0.30;;
64917;SDS011;52176;44.858;38.372;2023-05-20T15:12:10;0.80;;;0.30;;
64917;SDS011;52176;44.858;38.372;2023-05-20T15:14:36;0.60;;;0.30;;
64917;SDS011;52176;44.858;38.372;2023-05-20T15:17:02;0.55;;;0.30;;
64917;SDS011;52176;44.858;38.372;2023-05-20T15:19:30;0.93;;;0.30;;
64917;SDS011;52176;44.858;38.372;2023-05-20T15:21:57;1.30;;;0.30;;
64917;SDS011;52176;44.858;38.372;2023-05-20T15:24:23;1.10;;;0.30;;
64917;SDS011;52176;44.858;38.372;2023-05-20T15:26:50;1.38;;;0.30;;
64917;SDS011;52176;44.858;38.372;2023-05-20T15:29:16;0.50;;;0.30;;
64917;SDS011;52176;44.858;38.372;2023-05-20T15:31:42;0.65;;;0.22;;
64917;SDS011;52176;44.858;38.372;2023-05-20T15:34:08;0.75;;;0.28;;
64917;SDS011;52176;44.858;38.372;2023-05-20T15:36:34;1.00;;;0.30;;
64917;SDS011;52176;44.858;38.372;2023-05-20T15:39:00;0.80;;;0.30;;
64917;SDS011;52176;44.858;38.372;2023-05-20T15:41:26;1.02;;;0.30;;
64917;SDS011;52176;44.858;38.372;2023-05-20T15:43:52;1.10;;;0.30;;
64917;SDS011;52176;44.858;38.372;2023-05-20T15:46:18;1.20;;;0.30;;
64917;SDS011;52176;44.858;38.372;2023-05-20T15:48:45;1.13;;;0.30;;
64917;SDS011;52176;44.858;38.372;2023-05-20T15:51:11;1.85;;;0.30;;
64917;SDS011;52176;44.858;38.372;2023-05-20T15:53:38;1.13;;;0.30;;
64917;SDS011;52176;44.858;38.372;2023-05-20T15:56:05;0.75;;;0.30;;
64917;SDS011;52176;44.858;38.372;2023-05-20T15:58:32;1.75;;;0.40;;
64917;SDS011;52176;44.858;38.372;2023-05-20T16:00:58;0.98;;;0.30;;
64917;SDS011;52176;44.858;38.372;2023-05-20T16:03:23;0.75;;;0.30;;
64917;SDS011;52176;44.858;38.372;2023-05-20T16:05:50;1.33;;;0.35;;
64917;SDS011;52176;44.858;38.372;2023-05-20T16:08:15;1.27;;;0.30;;
64917;SDS011;52176;44.858;38.372;2023-05-20T16:10:41;0.80;;;0.38;;
64917;SDS011;52176;44.858;38.372;2023-05-20T16:13:07;1.50;;;0.40;;
64917;SDS011;52176;44.858;38.372;2023-05-20T16:15:33;0.75;;;0.30;;
64917;SDS011;52176;44.858;38.372;2023-05-20T16:18:02;1.10;;;0.40;;
64917;SDS011;52176;44.858;38.372;2023-05-20T16:20:28;0.90;;;0.30;;
64917;SDS011;52176;44.858;38.372;2023-05-20T16:22:54;1.90;;;0.70;;
64917;SDS011;52176;44.858;38.372;2023-05-20T16:25:20;6.30;;;2.17;;
64917;SDS011;52176;44.858;38.372;2023-05-20T16:27:47;2.28;;;0.70;;
64917;SDS011;52176;44.858;38.372;2023-05-20T16:30:13;1.85;;;0.40;;
64917;SDS011;52176;44.858;38.372;2023-05-20T16:32:38;1.25;;;0.40;;
64917;SDS011;52176;44.858;38.372;2023-05-20T16:35:05;1.50;;;0.40;;
64917;SDS011;52176;44.858;38.372;2023-05-20T16:37:31;2.75;;;0.47;;
64917;SDS011;52176;44.858;38.372;2023-05-20T16:39:58;1.80;;;0.40;;
64917;SDS011;52176;44.858;38.372;2023-05-20T16:42:24;1.38;;;0.40;;
64917;SDS011;52176;44.858;38.372;2023-05-20T16:44:50;1.70;;;0.50;;
64917;SDS011;52176;44.858;38.372;2023-05-20T16:47:17;0.98;;;0.40;;
64917;SDS011;52176;44.858;38.372;2023-05-20T16:49:43;0.88;;;0.40;;
64917;SDS011;52176;44.858;38.372;2023-05-20T16:52:09;0.55;;;0.30;;
64917;SDS011;52176;44.858;38.372;2023-05-20T16:54:35;0.70;;;0.30;;
64917;SDS011;52176;44.858;38.372;2023-05-20T16:57:03;1.10;;;0.40;;
64917;SDS011;52176;44.858;38.372;2023-05-20T16:59:32;0.88;;;0.30;;
64917;SDS011;52176;44.858;38.372;2023-05-20T17:01:59;0.98;;;0.30;;
64917;SDS011;52176;44.858;38.372;2023-05-20T17:04:25;1.40;;;0.60;;
64917;SDS011;52176;44.858;38.372;2023-05-20T17:06:51;2.80;;;0.98;;
64917;SDS011;52176;44.858;38.372;2023-05-20T17:09:17;3.47;;;1.00;;
64917;SDS011;52176;44.858;38.372;2023-05-20T17:11:43;2.55;;;0.70;;
64917;SDS011;52176;44.858;38.372;2023-05-20T17:14:09;1.98;;;0.60;;
64917;SDS011;52176;44.858;38.372;2023-05-20T17:16:35;1.45;;;0.60;;
64917;SDS011;52176;44.858;38.372;2023-05-20T17:19:01;2.03;;;0.40;;
64917;SDS011;52176;44.858;38.372;2023-05-20T17:21:27;1.23;;;0.40;;
64917;SDS011;52176;44.858;38.372;2023-05-20T17:23:53;1.33;;;0.40;;
64917;SDS011;52176;44.858;38.372;2023-05-20T17:26:19;1.00;;;0.40;;
64917;SDS011;52176;44.858;38.372;2023-05-20T17:28:46;1.02;;;0.40;;
64917;SDS011;52176;44.858;38.372;2023-05-20T17:31:12;1.00;;;0.40;;
64917;SDS011;52176;44.858;38.372;2023-05-20T17:33:38;0.98;;;0.40;;
64917;SDS011;52176;44.858;38.372;2023-05-20T17:36:04;1.45;;;0.40;;
64917;SDS011;52176;44.858;38.372;2023-05-20T17:38:30;1.60;;;0.40;;
64917;SDS011;52176;44.858;38.372;2023-05-20T17:40:56;0.98;;;0.40;;
64917;SDS011;52176;44.858;38.372;2023-05-20T17:43:22;1.30;;;0.50;;
64917;SDS011;52176;44.858;38.372;2023-05-20T17:45:49;1.15;;;0.50;;